Time;durP1;ratioP1;P1;durP2;ratioP2;P2;SDS_P1;SDS_P2;PMS_P1;PMS_P2;Temp;Humidity;BMP_temperature;BMP_pressure;BME280_temperature;BME280_humidity;BME280_pressure;Samples;Min_cycle;Max_cycle;Signal;HPM_P1;HPM_P2
2023/12/22 00:01:35;;;;;;;19.33;11.87;;;;;;;-144.30;79.17;86666.97;5110511;28;20212;-59
2023/12/22 00:04:02;;;;;;;24.50;13.47;;;;;;;-144.30;79.16;86645.09;5110761;28;20239;-59
2023/12/22 00:06:29;;;;;;;27.03;13.43;;;;;;;-144.30;79.42;86641.09;5110770;28;20693;-56
2023/12/22 00:08:57;;;;;;;31.87;14.70;;;;;;;-144.30;79.40;86684.84;5110451;28;20194;-59
2023/12/22 00:11:24;;;;;;;26.70;13.97;;;;;;;-144.30;79.63;86678.88;5110480;28;20223;-59
2023/12/22 00:13:51;;;;;;;26.37;13.47;;;;;;;-144.30;80.10;86627.19;5110184;28;20230;-59
2023/12/22 00:16:18;;;;;;;24.30;13.23;;;;;;;-144.30;79.93;86635.13;5110339;28;20206;-60
2023/12/22 00:18:45;;;;;;;22.80;12.60;;;;;;;-144.30;80.09;86631.16;5109769;28;20603;-59
2023/12/22 00:21:12;;;;;;;23.47;13.40;;;;;;;-144.30;80.52;86641.09;5110359;28;20195;-54
2023/12/22 00:23:39;;;;;;;25.33;12.90;;;;;;;-144.30;80.70;86619.22;5110559;28;20206;-56
2023/12/22 00:26:07;;;;;;;20.33;12.13;;;;;;;-144.30;80.70;86631.16;5110131;28;20195;-55
2023/12/22 00:28:34;;;;;;;24.33;12.53;;;;;;;-144.30;80.36;86655.03;5110171;28;20222;-59
2023/12/22 00:31:01;;;;;;;21.87;12.27;;;;;;;-144.30;80.68;86657.03;5109785;28;20201;-60
2023/12/22 00:33:28;;;;;;;20.27;11.07;;;;;;;-144.30;79.92;86655.03;5110709;28;20587;-58
2023/12/22 00:35:55;;;;;;;19.50;11.20;;;;;;;-144.30;79.60;86657.03;5110254;28;20213;-59
2023/12/22 00:38:22;;;;;;;17.23;10.73;;;;;;;-144.30;79.83;86643.09;5110092;28;20209;-59
2023/12/22 00:40:49;;;;;;;15.17;9.83;;;;;;;-144.30;79.42;86678.88;5109728;28;20194;-56
2023/12/22 00:43:17;;;;;;;16.33;10.17;;;;;;;-144.30;79.49;86625.19;5109987;28;20277;-56
2023/12/22 00:45:44;;;;;;;14.27;8.97;;;;;;;-144.30;79.90;86686.84;5109751;28;20666;-55
2023/12/22 00:48:11;;;;;;;15.33;10.13;;;;;;;-144.30;80.05;86641.09;5110099;28;20697;-56
2023/12/22 00:50:38;;;;;;;17.20;9.63;;;;;;;-144.30;81.12;86710.72;5110066;28;20704;-56
2023/12/22 00:53:05;;;;;;;14.03;9.83;;;;;;;-144.30;81.20;86674.91;5109661;28;20214;-56
2023/12/22 00:55:32;;;;;;;15.47;9.40;;;;;;;-144.30;81.32;86684.84;5109770;28;20205;-59
2023/12/22 00:57:59;;;;;;;13.97;9.17;;;;;;;-144.30;81.05;86879.75;5109863;28;20282;-55
2023/12/22 01:00:27;;;;;;;13.83;8.97;;;;;;;-144.30;81.37;86704.75;5110308;28;20706;-55
2023/12/22 01:02:54;;;;;;;18.03;9.87;;;;;;;-144.30;81.54;86714.69;5109720;28;20191;-60
2023/12/22 01:05:21;;;;;;;15.60;9.30;;;;;;;-144.30;81.28;86678.88;5109933;28;20845;-58
2023/12/22 01:07:48;;;;;;;14.67;9.50;;;;;;;-144.30;81.84;86653.03;5109645;28;20259;-59
2023/12/22 01:10:14;;;;;;;16.63;10.17;;;;;;;-144.30;81.71;86672.94;5109702;28;20576;-56
2023/12/22 01:12:41;;;;;;;12.93;9.33;;;;;;;-144.30;81.50;86657.03;5109985;28;20222;-56
2023/12/22 01:15:09;;;;;;;16.87;10.00;;;;;;;-144.30;81.50;86651.06;5109616;28;20201;-59
2023/12/22 01:17:37;;;;;;;14.33;9.30;;;;;;;-144.30;81.42;86653.03;5109928;28;20698;-55
2023/12/22 01:20:05;;;;;;;18.10;9.67;;;;;;;-144.30;81.94;86670.94;5109373;28;20202;-55
2023/12/22 01:22:33;;;;;;;17.93;9.37;;;;;;;-144.30;82.74;86690.81;5109775;28;20197;-59
2023/12/22 01:25:01;;;;;;;14.17;8.97;;;;;;;-144.30;83.36;86672.94;5109620;28;20198;-59
2023/12/22 01:27:28;;;;;;;12.57;8.60;;;;;;;-144.30;83.86;86694.81;5109871;28;20199;-58
2023/12/22 01:29:55;;;;;;;18.90;10.47;;;;;;;-144.30;84.18;86690.81;5110902;28;20195;-59
2023/12/22 01:32:21;;;;;;;15.03;9.03;;;;;;;-144.30;84.13;86659.00;5113745;28;20658;-59
2023/12/22 01:34:50;;;;;;;12.53;9.67;;;;;;;-144.30;83.76;86647.06;5113555;28;20199;-59
2023/12/22 01:37:17;;;;;;;15.73;8.90;;;;;;;-144.30;83.16;86710.72;5113639;28;20213;-57
2023/12/22 01:39:43;;;;;;;16.93;10.00;;;;;;;-144.30;83.18;86704.75;5113471;28;20198;-59
2023/12/22 01:42:10;;;;;;;12.47;9.30;;;;;;;-144.30;83.46;86682.88;5113272;28;20236;-59
2023/12/22 01:44:37;;;;;;;16.80;9.63;;;;;;;-144.30;83.39;86686.84;5113736;28;20631;-59
2023/12/22 01:47:05;;;;;;;15.70;9.80;;;;;;;-144.30;83.44;86682.88;5113107;28;20205;-59
2023/12/22 01:49:32;;;;;;;15.43;9.53;;;;;;;-144.30;83.39;86710.72;5113700;28;20709;-59
2023/12/22 01:52:01;;;;;;;25.40;10.53;;;;;;;-144.30;84.03;86657.03;5112931;28;20300;-59
2023/12/22 01:54:28;;;;;;;17.07;10.90;;;;;;;-144.30;84.05;86651.06;5113276;28;20194;-56
2023/12/22 01:56:55;;;;;;;19.20;11.60;;;;;;;-144.30;84.50;86676.91;5113215;28;20642;-60
2023/12/22 01:59:23;;;;;;;19.50;13.13;;;;;;;-144.30;84.61;86682.88;5113153;28;20588;-59
2023/12/22 02:01:50;;;;;;;19.07;12.00;;;;;;;-144.30;84.96;86659.00;5112993;28;20713;-55
2023/12/22 02:04:17;;;;;;;19.43;11.23;;;;;;;-144.30;85.42;86629.19;5113186;28;20195;-55
2023/12/22 02:06:44;;;;;;;17.07;11.37;;;;;;;-144.30;84.96;86706.72;5112908;28;20201;-58
2023/12/22 02:09:12;;;;;;;20.53;11.87;;;;;;;-144.30;85.30;86684.84;5112923;28;20198;-55
2023/12/22 02:11:40;;;;;;;20.60;10.87;;;;;;;-144.30;85.12;86704.75;5113195;28;20225;-58
2023/12/22 02:14:07;;;;;;;17.87;10.43;;;;;;;-144.30;83.95;86672.94;5112937;28;20200;-59
2023/12/22 02:16:44;;;;;;;19.13;11.73;;;;;;;-144.30;83.89;86690.81;5113187;28;20205;-55
2023/12/22 02:19:37;;;;;;;17.37;11.07;;;;;;;-144.30;83.26;86662.97;5112741;28;20195;-60
2023/12/22 02:22:05;;;;;;;18.47;11.30;;;;;;;-144.30;82.95;86623.22;5112718;28;20679;-54
2023/12/22 02:24:33;;;;;;;17.07;10.37;;;;;;;-144.30;83.49;86645.09;5112856;28;20195;-55
2023/12/22 02:27:05;;;;;;;16.03;10.43;;;;;;;-144.30;83.03;86657.03;5112432;28;20285;-55
2023/12/22 02:29:34;;;;;;;16.63;9.93;;;;;;;-144.30;83.89;86645.09;5112657;28;20202;-58
2023/12/22 02:32:05;;;;;;;17.13;10.40;;;;;;;-144.30;83.71;86674.91;5112348;28;20227;-56
2023/12/22 02:34:35;;;;;;;16.03;10.77;;;;;;;-144.30;83.37;86664.97;5112564;28;20195;-58
2023/12/22 02:37:04;;;;;;;16.27;10.17;;;;;;;-144.30;83.11;86674.91;5112312;28;20225;-54
2023/12/22 02:39:31;;;;;;;16.97;10.60;;;;;;;-144.30;83.55;86666.97;5112491;28;20383;-59
2023/12/22 02:42:00;;;;;;;18.47;10.70;;;;;;;-144.30;83.37;86692.81;5111208;28;20914;-59
2023/12/22 02:44:28;;;;;;;19.80;10.90;;;;;;;-144.30;83.12;86641.09;5112193;28;20221;-56
2023/12/22 02:46:55;;;;;;;19.57;11.23;;;;;;;-144.30;83.22;86661.00;5112196;28;20293;-55
2023/12/22 02:49:22;;;;;;;17.27;10.23;;;;;;;-144.30;83.05;86690.81;5112253;28;20202;-56
2023/12/22 02:51:48;;;;;;;18.27;11.43;;;;;;;-144.30;82.57;86674.91;5112009;28;20226;-55
2023/12/22 02:54:15;;;;;;;19.30;12.00;;;;;;;-144.30;83.26;86672.94;5112174;28;20194;-59
2023/12/22 02:56:42;;;;;;;19.87;11.33;;;;;;;-144.30;83.68;86676.91;5111978;28;20198;-56
2023/12/22 02:59:11;;;;;;;19.47;11.50;;;;;;;-144.30;83.20;86688.84;5112304;28;20194;-55
2023/12/22 03:01:37;;;;;;;20.73;11.83;;;;;;;-144.30;83.27;86692.81;5112424;28;20201;-58
2023/12/22 03:04:04;;;;;;;18.20;10.80;;;;;;;-144.30;83.83;86661.00;5111633;28;20201;-59
2023/12/22 03:06:31;;;;;;;19.50;10.30;;;;;;;-144.30;83.16;86686.84;5111895;28;20205;-55
2023/12/22 03:08:58;;;;;;;18.27;10.90;;;;;;;-144.30;84.33;86680.88;5111661;28;20201;-55
2023/12/22 03:11:25;;;;;;;23.10;10.50;;;;;;;-144.30;84.08;86710.72;5111744;28;20190;-56
2023/12/22 03:13:52;;;;;;;19.57;11.17;;;;;;;-144.30;85.31;86678.88;5111539;28;20230;-54
2023/12/22 03:16:20;;;;;;;19.60;11.43;;;;;;;-144.30;85.50;86686.84;5111791;28;20205;-56
2023/12/22 03:18:47;;;;;;;17.50;10.63;;;;;;;-144.30;85.08;86690.81;5111862;28;20298;-59
2023/12/22 03:21:18;;;;;;;23.70;10.47;;;;;;;-144.30;85.06;86672.94;5111768;28;20205;-56
2023/12/22 03:23:45;;;;;;;16.50;10.60;;;;;;;-144.30;85.54;86686.84;5111572;28;20204;-58
2023/12/22 03:26:12;;;;;;;18.87;10.97;;;;;;;-144.30;85.47;86702.75;5111697;28;20646;-60
2023/12/22 03:28:39;;;;;;;18.07;10.83;;;;;;;-144.30;85.40;86692.81;5109884;28;20190;-59
2023/12/22 03:31:06;;;;;;;17.10;11.00;;;;;;;-144.30;87.08;86704.75;5110537;28;20195;-59
2023/12/22 03:33:35;;;;;;;17.17;10.53;;;;;;;-144.30;87.80;86692.81;5110244;28;20709;-59
2023/12/22 03:36:01;;;;;;;19.57;10.93;;;;;;;-144.30;87.58;86718.66;5110171;28;20209;-59
2023/12/22 03:38:28;;;;;;;21.07;12.53;;;;;;;-144.30;86.65;86666.97;5110146;28;20187;-56
2023/12/22 03:40:55;;;;;;;20.30;12.13;;;;;;;-144.30;86.16;86692.81;5109547;28;20266;-59
2023/12/22 03:43:22;;;;;;;19.43;11.63;;;;;;;-144.30;86.66;86686.84;5107478;28;20205;-59
2023/12/22 03:45:49;;;;;;;19.23;11.93;;;;;;;-144.30;87.56;86708.72;5110188;28;20191;-60
2023/12/22 03:48:16;;;;;;;19.93;12.17;;;;;;;-144.30;88.23;86724.63;5110387;28;20205;-55
2023/12/22 03:50:44;;;;;;;22.50;13.47;;;;;;;-144.30;87.02;86676.91;5110552;28;20230;-56
2023/12/22 03:53:11;;;;;;;25.73;13.83;;;;;;;-144.30;85.81;86708.72;5110930;28;20222;-55
2023/12/22 03:55:38;;;;;;;21.33;13.83;;;;;;;-144.30;85.79;86664.97;5111294;28;20662;-56
2023/12/22 03:58:07;;;;;;;24.03;12.80;;;;;;;-144.30;85.72;86674.91;5110866;28;20671;-56
2023/12/22 04:00:34;;;;;;;21.17;12.10;;;;;;;-144.30;85.67;86670.94;5110665;28;20202;-56
2023/12/22 04:03:01;;;;;;;19.97;12.33;;;;;;;-144.30;84.68;86688.84;5110831;28;20248;-56
2023/12/22 04:05:28;;;;;;;22.73;12.00;;;;;;;-144.30;84.38;86655.03;5110509;28;20195;-60
2023/12/22 04:07:56;;;;;;;20.90;11.10;;;;;;;-144.30;84.64;86670.94;5110666;28;20663;-59
2023/12/22 04:10:23;;;;;;;19.17;11.90;;;;;;;-144.30;84.19;86676.91;5110940;27;20595;-61
2023/12/22 04:12:50;;;;;;;18.30;11.67;;;;;;;-144.30;84.17;86657.03;5110360;28;20609;-55
2023/12/22 04:15:17;;;;;;;21.87;11.70;;;;;;;-144.30;83.98;86661.00;5110626;28;20729;-61
2023/12/22 04:17:44;;;;;;;19.97;11.83;;;;;;;-144.30;83.80;86961.28;5109421;28;20712;-55
2023/12/22 04:20:12;;;;;;;21.03;13.07;;;;;;;-144.30;83.88;86684.84;5109687;28;20658;-55
2023/12/22 04:22:39;;;;;;;21.03;11.90;;;;;;;-144.30;84.02;86664.97;5110554;28;20232;-60
2023/12/22 04:25:08;;;;;;;18.53;11.83;;;;;;;-144.30;83.38;86662.97;5110440;28;20225;-55
2023/12/22 04:27:35;;;;;;;21.40;12.53;;;;;;;-144.30;83.41;86670.94;5110575;28;20718;-57
2023/12/22 04:30:02;;;;;;;21.67;12.60;;;;;;;-144.30;83.37;86661.00;5110261;28;20198;-56
2023/12/22 04:32:29;;;;;;;20.73;13.37;;;;;;;-144.30;83.20;86666.97;5110208;28;20701;-56
2023/12/22 04:34:56;;;;;;;22.50;14.17;;;;;;;-144.30;83.83;86684.84;5110096;28;20205;-59
2023/12/22 04:37:24;;;;;;;20.93;13.60;;;;;;;-144.30;83.33;86664.97;5110142;28;20202;-59
2023/12/22 04:39:51;;;;;;;21.33;13.47;;;;;;;-144.30;82.47;86662.97;5109952;28;20584;-55
2023/12/22 04:42:20;;;;;;;27.40;13.67;;;;;;;-144.30;81.92;86661.00;5110017;28;20280;-56
2023/12/22 04:44:47;;;;;;;21.87;12.33;;;;;;;-144.30;81.98;86647.06;5110197;28;20206;-56
2023/12/22 04:47:14;;;;;;;23.97;13.63;;;;;;;-144.30;81.81;86664.97;5110184;28;20673;-56
2023/12/22 04:49:41;;;;;;;18.20;11.97;;;;;;;-144.30;81.77;86649.06;5110220;28;20642;-56
2023/12/22 04:52:08;;;;;;;25.43;13.93;;;;;;;-144.30;80.97;86684.84;5109742;28;20876;-55
2023/12/22 04:54:35;;;;;;;25.80;14.83;;;;;;;-144.30;81.46;86668.94;5109966;28;20194;-59
2023/12/22 04:57:02;;;;;;;22.20;14.47;;;;;;;-144.30;81.63;86651.06;5109896;28;20199;-60
2023/12/22 04:59:29;;;;;;;25.90;14.63;;;;;;;-144.30;80.94;86643.09;5109943;28;20573;-55
2023/12/22 05:01:56;;;;;;;26.07;14.53;;;;;;;-144.30;81.04;86664.97;5109636;28;20234;-56
2023/12/22 05:04:23;;;;;;;22.67;14.47;;;;;;;-144.30;80.89;86659.00;5112156;28;20194;-54
2023/12/22 05:06:50;;;;;;;23.83;14.00;;;;;;;-144.30;80.22;86684.84;5116817;28;20198;-61
2023/12/22 05:09:17;;;;;;;26.13;15.03;;;;;;;-144.30;80.22;86672.94;5116863;27;20281;-55
2023/12/22 05:11:44;;;;;;;23.37;13.77;;;;;;;-144.30;80.65;86676.91;5117390;28;20213;-60
2023/12/22 05:14:11;;;;;;;22.90;14.40;;;;;;;-144.30;81.26;86591.38;5116306;28;20309;-58
2023/12/22 05:16:39;;;;;;;20.83;13.30;;;;;;;-144.30;81.29;86643.09;5116574;28;20277;-59
2023/12/22 05:19:06;;;;;;;19.37;12.73;;;;;;;-144.30;81.45;86659.00;5116603;28;20590;-56
2023/12/22 05:21:33;;;;;;;19.60;11.57;;;;;;;-144.30;82.36;86670.94;5116672;27;20688;-60
2023/12/22 05:24:00;;;;;;;18.87;11.17;;;;;;;-144.30;82.86;86509.84;5116225;28;20216;-59
2023/12/22 05:26:29;;;;;;;16.60;10.77;;;;;;;-144.30;82.98;86704.75;5116363;28;20202;-59
2023/12/22 05:28:56;;;;;;;19.87;11.07;;;;;;;-144.30;83.68;86704.75;5115830;27;20199;-55
2023/12/22 05:31:23;;;;;;;17.10;10.83;;;;;;;-144.30;83.60;86684.84;5116499;28;20205;-54
2023/12/22 05:33:52;;;;;;;19.30;11.70;;;;;;;-144.30;83.83;86702.75;5116431;27;20719;-60
2023/12/22 05:36:19;;;;;;;23.20;12.73;;;;;;;-144.30;82.98;86690.81;5116419;28;20243;-59
2023/12/22 05:38:45;;;;;;;23.37;13.43;;;;;;;-144.30;83.82;86690.81;5116264;28;20229;-55
2023/12/22 05:41:13;;;;;;;28.07;15.27;;;;;;;-144.30;84.50;86696.78;5115804;28;20603;-55
2023/12/22 05:43:40;;;;;;;29.20;14.83;;;;;;;-144.30;84.88;86686.84;5116232;28;20632;-55
2023/12/22 05:46:06;;;;;;;28.40;13.73;;;;;;;-144.30;84.94;86760.44;5116203;28;20195;-55
2023/12/22 05:48:35;;;;;;;28.70;15.47;;;;;;;-144.30;85.38;86676.91;5116174;27;20208;-56
2023/12/22 05:51:07;;;;;;;30.63;16.00;;;;;;;-144.30;86.05;86690.81;5116085;27;20205;-59
2023/12/22 05:53:35;;;;;;;30.90;17.23;;;;;;;-144.30;85.78;86696.78;5116073;27;20232;-60
2023/12/22 05:56:02;;;;;;;33.63;17.97;;;;;;;-144.30;84.99;86686.84;5115888;27;20204;-59
2023/12/22 05:58:29;;;;;;;35.77;17.73;;;;;;;-144.30;85.22;86688.84;5116307;28;20194;-59
2023/12/22 06:00:56;;;;;;;43.50;17.60;;;;;;;-144.30;85.99;86700.78;5115980;28;20194;-61
2023/12/22 06:03:23;;;;;;;39.50;20.10;;;;;;;-144.30;84.99;86706.72;5116059;28;20194;-56
2023/12/22 06:05:49;;;;;;;40.07;19.90;;;;;;;-144.30;85.64;86704.75;5116221;28;20271;-57
2023/12/22 06:08:18;;;;;;;36.07;18.60;;;;;;;-144.30;86.90;86716.69;5115952;27;20194;-56
2023/12/22 06:10:45;;;;;;;34.33;16.77;;;;;;;-144.30;86.78;86655.03;5116115;27;20198;-56
2023/12/22 06:13:12;;;;;;;35.43;17.20;;;;;;;-144.30;86.93;86647.06;5115606;27;20229;-58
2023/12/22 06:15:39;;;;;;;34.63;16.87;;;;;;;-144.30;86.44;86668.94;5113955;27;20203;-58
2023/12/22 06:18:06;;;;;;;31.13;17.53;;;;;;;-144.30;86.32;86692.81;5112552;28;20677;-59
2023/12/22 06:20:33;;;;;;;34.70;18.27;;;;;;;-144.30;85.54;86678.88;5112688;28;20201;-58
2023/12/22 06:23:00;;;;;;;32.50;16.90;;;;;;;-144.30;85.19;86676.91;5112385;28;20199;-59
2023/12/22 06:25:28;;;;;;;31.93;15.77;;;;;;;-144.30;85.05;86684.84;5112657;28;20285;-58
2023/12/22 06:27:55;;;;;;;29.40;14.83;;;;;;;-144.30;84.85;86668.94;5112403;28;20693;-59
2023/12/22 06:30:22;;;;;;;24.00;12.83;;;;;;;-144.30;84.95;86704.75;5112600;28;20194;-60
2023/12/22 06:32:49;;;;;;;18.57;12.57;;;;;;;-144.30;84.85;86672.94;5112534;28;20582;-59
2023/12/22 06:35:16;;;;;;;25.30;12.70;;;;;;;-144.30;84.55;86635.13;5112381;28;20586;-59
2023/12/22 06:37:43;;;;;;;27.57;14.60;;;;;;;-144.30;83.43;86641.09;5112467;28;20396;-60
2023/12/22 06:40:11;;;;;;;26.13;14.43;;;;;;;-144.30;82.85;86692.81;5112294;28;20194;-63
2023/12/22 06:42:39;;;;;;;27.33;14.53;;;;;;;-144.30;83.61;86674.91;5112124;28;20256;-61
2023/12/22 06:45:07;;;;;;;28.20;13.17;;;;;;;-144.30;83.38;86629.19;5112166;28;20193;-61
2023/12/22 06:47:34;;;;;;;26.80;14.17;;;;;;;-144.30;82.88;86670.94;5112244;27;20194;-60
2023/12/22 06:50:01;;;;;;;33.40;15.40;;;;;;;-144.30;83.27;86668.94;5111757;28;20191;-61
2023/12/22 06:52:28;;;;;;;31.40;15.00;;;;;;;-144.30;83.26;86635.13;5112408;28;20199;-61
2023/12/22 06:54:55;;;;;;;33.23;16.37;;;;;;;-144.30;83.73;86694.81;5111881;28;20225;-60
2023/12/22 06:57:22;;;;;;;33.17;16.83;;;;;;;-144.30;83.05;86631.16;5112175;28;20281;-61
2023/12/22 06:59:50;;;;;;;36.17;16.73;;;;;;;-144.30;82.53;86649.06;5112164;28;20600;-59
2023/12/22 07:02:17;;;;;;;36.23;16.67;;;;;;;-144.30;81.92;86625.19;5107017;28;20267;-59
2023/12/22 07:05:20;;;;;;;31.07;16.13;;;;;;;-144.30;81.63;86647.06;5111554;28;20204;-59
2023/12/22 07:07:47;;;;;;;32.83;16.27;;;;;;;-144.30;81.68;86613.28;5109771;28;20208;-60
2023/12/22 07:10:14;;;;;;;34.63;17.17;;;;;;;-144.30;82.27;86684.84;5111221;28;20203;-59
2023/12/22 07:12:41;;;;;;;32.70;17.40;;;;;;;-144.30;82.08;86653.03;5123719;27;20647;-59
2023/12/22 07:15:10;;;;;;;34.83;17.97;;;;;;;-144.30;82.81;86633.16;5111001;28;20215;-61
2023/12/22 07:17:37;;;;;;;33.50;17.43;;;;;;;-144.30;82.23;86627.19;5110853;28;20725;-61
2023/12/22 07:20:05;;;;;;;28.00;16.47;;;;;;;-144.30;82.16;86597.34;5111223;28;20205;-58
2023/12/22 07:22:32;;;;;;;35.37;19.60;;;;;;;-144.30;82.11;86601.34;5111495;28;20610;-60
2023/12/22 07:24:59;;;;;;;35.67;18.33;;;;;;;-144.30;82.24;86595.38;5111294;27;20233;-61
2023/12/22 07:27:26;;;;;;;33.27;18.33;;;;;;;-144.30;81.96;86563.56;5110563;28;20283;-60
2023/12/22 07:29:53;;;;;;;32.83;19.30;;;;;;;-144.30;81.79;86641.09;5111164;28;20200;-60
2023/12/22 07:32:22;;;;;;;36.47;18.83;;;;;;;-144.30;81.65;86545.66;5110504;28;20199;-60
2023/12/22 07:34:48;;;;;;;36.17;19.57;;;;;;;-144.30;81.82;86625.19;5111569;28;20658;-59
2023/12/22 07:37:15;;;;;;;37.73;22.03;;;;;;;-144.30;81.28;86603.31;5110913;28;20603;-60
2023/12/22 07:39:45;;;;;;;44.50;23.47;;;;;;;-144.30;80.62;86605.31;5110909;28;20605;-60
2023/12/22 07:42:11;;;;;;;49.97;23.67;;;;;;;-144.30;80.48;86585.44;5110387;28;20230;-58
2023/12/22 07:44:38;;;;;;;38.70;22.47;;;;;;;-144.30;79.97;86553.59;5111080;28;20682;-59
2023/12/22 07:47:07;;;;;;;47.70;22.60;;;;;;;-144.30;79.91;86583.44;5109804;28;20282;-59
2023/12/22 07:49:35;;;;;;;39.53;21.73;;;;;;;-144.30;79.25;86581.44;5110789;28;20202;-59
2023/12/22 07:52:02;;;;;;;39.47;20.53;;;;;;;-144.30;78.97;86549.63;5110773;28;20664;-58
2023/12/22 07:54:29;;;;;;;38.27;20.37;;;;;;;-144.30;78.98;86511.84;5110672;28;20602;-61
2023/12/22 07:56:56;;;;;;;34.27;19.73;;;;;;;-144.30;78.76;86551.63;5110483;28;20607;-59
2023/12/22 07:59:22;;;;;;;39.53;19.63;;;;;;;-144.30;78.34;86593.38;5110622;28;20198;-58
2023/12/22 08:01:49;;;;;;;38.87;18.77;;;;;;;-144.30;78.61;86573.50;5109706;28;20199;-60
2023/12/22 08:04:16;;;;;;;30.03;17.57;;;;;;;-144.30;77.25;86557.59;5110316;28;20742;-61
2023/12/22 08:06:45;;;;;;;31.93;15.60;;;;;;;-144.30;76.37;86561.56;5110295;28;20190;-58
2023/12/22 08:09:12;;;;;;;24.57;15.20;;;;;;;-144.30;75.43;86581.44;5110218;28;20271;-59
2023/12/22 08:11:39;;;;;;;27.87;15.33;;;;;;;-144.30;75.92;86539.69;5109836;28;20213;-59
2023/12/22 08:14:06;;;;;;;32.30;15.57;;;;;;;-144.30;75.41;86569.50;5110078;28;20214;-59
2023/12/22 08:16:33;;;;;;;30.20;15.57;;;;;;;-144.30;74.23;86551.63;5110162;28;20200;-60
2023/12/22 08:19:00;;;;;;;28.83;15.47;;;;;;;-144.30;74.46;86519.81;5110059;28;20221;-58
2023/12/22 08:21:27;;;;;;;38.50;16.17;;;;;;;-144.30;73.61;86509.84;5110153;28;20194;-60
2023/12/22 08:23:55;;;;;;;25.13;13.67;;;;;;;-144.30;73.10;86529.75;5105582;28;20277;-61
2023/12/22 08:26:22;;;;;;;29.17;14.73;;;;;;;-144.30;72.88;86533.72;5109242;28;20667;-58
2023/12/22 08:28:49;;;;;;;31.63;13.93;;;;;;;-144.30;72.35;86505.88;5109063;28;20198;-60
2023/12/22 08:31:16;;;;;;;24.77;12.07;;;;;;;-144.30;71.06;86517.81;5110126;28;20674;-60
2023/12/22 08:33:43;;;;;;;22.17;12.00;;;;;;;-144.30;71.06;86539.69;5110080;28;20590;-59
2023/12/22 08:36:10;;;;;;;19.77;12.00;;;;;;;-144.30;70.87;86505.88;5109880;28;20199;-60
2023/12/22 08:38:40;;;;;;;25.93;12.00;;;;;;;-144.30;71.17;86478.03;5109502;28;20203;-59
2023/12/22 08:41:10;;;;;;;23.00;12.23;;;;;;;-144.30;70.23;86482.03;5109377;28;20234;-63
2023/12/22 08:43:38;;;;;;;28.17;12.57;;;;;;;-144.30;70.28;86491.97;5109979;28;20190;-60
2023/12/22 08:46:05;;;;;;;19.10;13.07;;;;;;;-144.30;70.27;86503.91;5110003;28;20225;-61
2023/12/22 08:48:32;;;;;;;29.00;14.40;;;;;;;-144.30;70.07;86497.94;5109918;28;20202;-59
2023/12/22 08:50:59;;;;;;;24.87;11.80;;;;;;;-144.30;70.09;86484.00;5109547;28;20195;-59
2023/12/22 08:53:25;;;;;;;20.57;12.00;;;;;;;-144.30;70.02;86474.06;5109919;28;20195;-61
2023/12/22 08:55:52;;;;;;;24.83;11.20;;;;;;;-144.30;69.95;86505.88;5105755;28;20284;-60
2023/12/22 08:58:21;;;;;;;21.00;12.10;;;;;;;-144.30;70.05;86460.16;5109517;28;20207;-60
2023/12/22 09:00:48;;;;;;;20.23;12.33;;;;;;;-144.30;70.12;86486.00;5109488;28;20616;-59
2023/12/22 09:03:14;;;;;;;19.90;14.53;;;;;;;-144.30;70.31;86493.94;5109572;28;20208;-60
2023/12/22 09:05:41;;;;;;;22.70;13.63;;;;;;;-144.30;70.42;86489.97;5108606;28;20205;-60
2023/12/22 09:08:08;;;;;;;25.53;13.20;;;;;;;-144.30;70.74;86476.06;5108711;28;20686;-59
2023/12/22 09:10:35;;;;;;;29.77;13.13;;;;;;;-144.30;71.37;86529.75;5109002;28;20694;-61
2023/12/22 09:13:02;;;;;;;27.23;14.80;;;;;;;-144.30;72.13;86507.88;5109399;28;20202;-61
2023/12/22 09:15:30;;;;;;;20.63;13.37;;;;;;;-144.30;72.68;86486.00;5109664;28;20222;-61
2023/12/22 09:17:57;;;;;;;26.47;13.70;;;;;;;-144.30;71.84;86493.94;5109682;28;20199;-61
2023/12/22 09:20:24;;;;;;;23.47;12.90;;;;;;;-144.30;71.59;86487.97;5109665;28;20297;-60
2023/12/22 09:22:51;;;;;;;26.20;12.33;;;;;;;-144.30;72.73;86499.91;5109448;28;20190;-61
2023/12/22 09:25:20;;;;;;;25.23;12.77;;;;;;;-144.30;72.59;86503.91;5109419;28;20193;-60
2023/12/22 09:27:47;;;;;;;29.47;13.63;;;;;;;-144.30;72.92;86505.88;5109544;28;20198;-62
2023/12/22 09:30:14;;;;;;;28.80;13.90;;;;;;;-144.30;72.56;86460.16;5109216;28;20201;-61
2023/12/22 09:32:42;;;;;;;20.73;12.73;;;;;;;-144.30;72.72;86493.94;5109441;28;20205;-61
2023/12/22 09:35:10;;;;;;;28.30;13.93;;;;;;;-144.30;72.95;86456.16;5109410;28;20245;-61
2023/12/22 09:37:37;;;;;;;24.30;14.27;;;;;;;-144.30;73.73;86406.44;5109642;28;20205;-60
2023/12/22 09:40:07;;;;;;;24.73;13.60;;;;;;;-144.30;73.73;86493.94;5109265;28;20205;-61
2023/12/22 09:42:34;;;;;;;23.00;13.40;;;;;;;-144.30;74.12;86497.94;5109673;28;20223;-60
2023/12/22 09:45:03;;;;;;;25.30;13.87;;;;;;;-144.30;73.82;86489.97;5109162;28;20286;-60
2023/12/22 09:47:31;;;;;;;30.20;13.77;;;;;;;-144.30;73.89;86478.03;5109642;28;20198;-61
2023/12/22 09:50:00;;;;;;;24.77;13.50;;;;;;;-144.30;74.19;86543.66;5109530;28;20282;-59
2023/12/22 09:52:29;;;;;;;23.40;13.93;;;;;;;-144.30;73.99;86487.97;5113302;28;20226;-59
2023/12/22 09:54:58;;;;;;;27.60;14.30;;;;;;;-144.30;74.84;86484.00;5112845;28;20229;-59
2023/12/22 09:57:27;;;;;;;22.73;13.67;;;;;;;-144.30;75.08;86478.03;5113119;28;20209;-59
2023/12/22 09:59:55;;;;;;;25.03;14.63;;;;;;;-144.30;75.37;86491.97;5113150;28;20238;-60
2023/12/22 10:02:23;;;;;;;24.97;14.83;;;;;;;-144.30;75.40;86503.91;5112965;28;20655;-59
2023/12/22 10:04:50;;;;;;;33.20;16.20;;;;;;;-144.30;75.67;86478.03;5113054;28;20628;-59
2023/12/22 10:07:20;;;;;;;29.87;14.63;;;;;;;-144.30;75.83;86478.03;5112691;28;20322;-62
2023/12/22 10:09:48;;;;;;;26.90;14.87;;;;;;;-144.30;76.45;86489.97;5112720;27;20260;-59
2023/12/22 10:12:16;;;;;;;23.97;14.87;;;;;;;-144.30;76.72;86450.19;5112430;28;20202;-59
2023/12/22 10:14:44;;;;;;;24.67;13.47;;;;;;;-144.30;76.71;86470.09;5112698;28;20313;-61
2023/12/22 10:17:11;;;;;;;22.60;13.67;;;;;;;-144.30;76.38;86442.25;5112507;28;20194;-59
2023/12/22 10:19:39;;;;;;;19.93;13.03;;;;;;;-144.30;77.12;86511.84;5112839;28;20560;-59
2023/12/22 10:22:06;;;;;;;21.30;12.27;;;;;;;-144.30;77.48;86446.22;5112270;27;20263;-58
2023/12/22 10:24:43;;;;;;;24.60;12.70;;;;;;;-144.30;77.63;86428.31;5112616;28;20222;-59
2023/12/22 10:27:11;;;;;;;20.77;11.80;;;;;;;-144.30;77.70;86388.56;5112515;28;20611;-59
2023/12/22 10:29:38;;;;;;;22.73;12.87;;;;;;;-144.30;78.33;86400.50;5112462;28;20206;-59
2023/12/22 10:32:06;;;;;;;19.50;12.80;;;;;;;-144.30;79.95;86418.38;5112080;28;20282;-58
2023/12/22 10:34:33;;;;;;;27.60;13.40;;;;;;;-144.30;80.52;86382.59;5112442;28;20757;-61
2023/12/22 10:37:01;;;;;;;20.63;12.40;;;;;;;-144.30;81.65;86406.44;5112255;28;20186;-60
2023/12/22 10:39:29;;;;;;;20.27;12.30;;;;;;;-144.30;82.95;86402.47;5112176;28;20290;-60
2023/12/22 10:41:58;;;;;;;18.83;12.00;;;;;;;-144.30;84.08;86416.41;5112094;28;20657;-60
2023/12/22 10:44:26;;;;;;;19.07;12.03;;;;;;;-144.30;85.35;86412.41;5112168;28;20195;-61
2023/12/22 10:46:54;;;;;;;17.60;11.97;;;;;;;-144.30;86.29;86410.44;5112276;28;20267;-60
2023/12/22 10:49:21;;;;;;;16.43;10.93;;;;;;;-144.30;87.22;86390.53;5112044;28;20212;-58
2023/12/22 10:51:48;;;;;;;22.80;11.33;;;;;;;-144.30;87.26;86386.56;5111877;28;20198;-58
2023/12/22 10:54:15;;;;;;;20.90;12.20;;;;;;;-144.30;88.11;86408.44;5111838;28;20604;-58
2023/12/22 10:56:42;;;;;;;22.00;13.97;;;;;;;-144.30;88.90;86410.44;5111970;28;20198;-60
2023/12/22 10:59:11;;;;;;;20.60;13.07;;;;;;;-144.30;89.80;86392.53;5111889;28;20256;-60
2023/12/22 11:01:39;;;;;;;21.47;12.73;;;;;;;-144.30;90.86;86406.44;5110968;28;20226;-59
2023/12/22 11:04:08;;;;;;;18.37;11.33;;;;;;;-144.30;90.90;86414.41;5111352;28;20195;-58